Time;durP1;ratioP1;P1;durP2;ratioP2;P2;SDS_P1;SDS_P2;PMS_P1;PMS_P2;Temp;Humidity;BMP_temperature;BMP_pressure;BME280_temperature;BME280_humidity;BME280_pressure;Samples;Min_cycle;Max_cycle;Signal;HPM_P1;HPM_P2
2022/01/29 00:00:21;;;;;;;6.15;2.10;;;;;;;-2.04;100.00;99486.41;4386538;32;20862;-73
2022/01/29 00:03:04;;;;;;;5.75;2.17;;;;;;;-2.40;100.00;99431.13;4387910;32;20423;-74
2022/01/29 00:05:31;;;;;;;7.00;2.62;;;;;;;-2.07;100.00;99486.72;4408090;32;20028;-73
2022/01/29 00:07:58;;;;;;;4.00;2.05;;;;;;;-2.48;100.00;99431.09;4356772;32;20496;-74
2022/01/29 00:10:24;;;;;;;7.50;2.87;;;;;;;-2.14;100.00;99475.94;4419403;32;20402;-73
2022/01/29 00:12:51;;;;;;;7.22;2.33;;;;;;;-2.42;100.00;99443.66;4417967;32;20032;-75
2022/01/29 00:15:24;;;;;;;6.12;2.35;;;;;;;-2.21;100.00;99488.94;4359864;32;20054;-74
2022/01/29 00:17:51;;;;;;;4.78;2.45;;;;;;;-2.27;100.00;99486.91;4416733;32;20044;-74
2022/01/29 00:20:24;;;;;;;8.85;2.30;;;;;;;-2.76;100.00;99421.53;4363765;32;20052;-74
2022/01/29 00:22:51;;;;;;;7.05;2.35;;;;;;;-2.29;100.00;99496.81;4416999;32;20056;-74
2022/01/29 00:25:18;;;;;;;13.18;2.85;;;;;;;-2.55;100.00;99451.97;4359416;32;20040;-73
2022/01/29 00:27:44;;;;;;;6.93;1.75;;;;;;;-2.68;100.00;99446.28;4403973;32;20424;-73
2022/01/29 00:30:16;;;;;;;9.85;2.35;;;;;;;-2.64;100.00;99453.72;4350218;32;20061;-74
2022/01/29 00:32:43;;;;;;;5.85;2.08;;;;;;;-2.69;100.00;99450.72;4353060;33;20035;-74
2022/01/29 00:35:10;;;;;;;8.13;1.98;;;;;;;-2.44;100.00;99499.19;4365669;32;20350;-74
2022/01/29 00:37:38;;;;;;;9.05;2.30;;;;;;;-2.35;100.00;99492.16;4418178;32;20054;-74
2022/01/29 00:40:05;;;;;;;11.60;2.40;;;;;;;-2.35;100.00;99500.06;4416293;32;20049;-76
2022/01/29 00:42:32;;;;;;;10.43;2.53;;;;;;;-2.47;100.00;99480.19;4406836;32;20044;-73
2022/01/29 00:45:01;;;;;;;8.02;2.50;;;;;;;-2.39;100.00;99504.00;4367102;32;20031;-73
2022/01/29 00:47:27;;;;;;;4.10;2.12;;;;;;;-2.75;100.00;99446.06;4431347;32;20406;-74
2022/01/29 00:49:54;;;;;;;7.93;2.15;;;;;;;-2.74;100.00;99455.62;4358399;32;20036;-75
2022/01/29 00:52:21;;;;;;;6.30;2.12;;;;;;;-2.49;100.00;99498.84;4350985;33;20044;-74
2022/01/29 00:54:47;;;;;;;6.37;2.08;;;;;;;-2.57;100.00;99491.69;4351903;33;20032;-73
2022/01/29 00:57:14;;;;;;;10.70;2.20;;;;;;;-2.48;100.00;99510.19;4352250;33;20062;-74
2022/01/29 00:59:41;;;;;;;6.30;2.33;;;;;;;-2.59;100.00;99504.19;4406142;32;20093;-74
2022/01/29 01:02:08;;;;;;;7.03;2.33;;;;;;;-2.50;100.00;99507.72;4364006;32;20061;-76
2022/01/29 01:04:39;;;;;;;8.73;2.87;;;;;;;-2.53;100.00;99505.37;4367023;32;20047;-74
2022/01/29 01:07:10;;;;;;;10.63;2.78;;;;;;;-2.79;100.00;99455.28;4366831;32;20039;-74
2022/01/29 01:09:37;;;;;;;6.00;2.50;;;;;;;-2.78;100.00;99451.63;4364227;32;20372;-74
2022/01/29 01:12:04;;;;;;;3.78;2.20;;;;;;;-2.79;100.00;99452.63;4417887;32;20061;-75
2022/01/29 01:14:31;;;;;;;9.82;2.83;;;;;;;-3.00;100.00;99448.53;4359289;32;20065;-74
2022/01/29 01:16:57;;;;;;;7.00;2.40;;;;;;;-2.63;100.00;99481.75;4415516;32;20028;-74
2022/01/29 01:19:26;;;;;;;5.22;2.35;;;;;;;-2.67;100.00;99480.38;4354212;32;20391;-74
2022/01/29 01:21:54;;;;;;;7.65;2.83;;;;;;;-2.62;100.00;99499.19;4366446;32;20498;-75
2022/01/29 01:24:21;;;;;;;16.00;3.65;;;;;;;-2.70;100.00;99475.41;4366237;32;20028;-73
2022/01/29 01:26:47;;;;;;;14.35;3.25;;;;;;;-2.56;100.00;99488.03;4367132;32;20040;-74
2022/01/29 01:29:15;;;;;;;9.80;3.30;;;;;;;-2.66;100.00;99476.78;4367736;32;20053;-73
2022/01/29 01:31:44;;;;;;;13.13;2.65;;;;;;;-2.61;100.00;99490.31;4416551;32;20016;-74
2022/01/29 01:34:15;;;;;;;9.00;2.80;;;;;;;-2.56;100.00;99488.03;4349913;33;20028;-74
2022/01/29 01:37:06;;;;;;;7.72;3.10;;;;;;;-2.92;100.00;99440.69;4352367;33;20245;-74
2022/01/29 01:39:34;;;;;;;6.55;2.92;;;;;;;-2.68;100.00;99478.75;4352490;32;20044;-74
2022/01/29 01:42:06;;;;;;;6.32;2.62;;;;;;;-3.08;100.00;99413.34;4404604;32;20727;-74
2022/01/29 01:44:43;;;;;;;7.93;2.72;;;;;;;-2.84;100.00;99452.25;4431428;32;20031;-74
2022/01/29 01:47:11;;;;;;;15.25;3.40;;;;;;;-2.68;100.00;99477.91;4366889;32;20032;-74
2022/01/29 01:49:37;;;;;;;11.40;2.75;;;;;;;-3.01;100.00;99414.41;4415445;32;20077;-74
2022/01/29 01:52:08;;;;;;;9.00;2.53;;;;;;;-2.67;100.00;99467.22;4416339;32;20444;-74
2022/01/29 01:54:35;;;;;;;6.70;3.00;;;;;;;-2.74;100.00;99466.19;4404074;32;20184;-75
2022/01/29 01:57:13;;;;;;;5.55;3.12;;;;;;;-3.07;100.00;99407.94;4400263;32;20380;-75
2022/01/29 01:59:40;;;;;;;10.07;2.33;;;;;;;-3.29;100.00;99367.94;4415256;32;20036;-75
2022/01/29 02:02:06;;;;;;;7.75;2.67;;;;;;;-2.93;100.00;99444.28;4357905;32;20052;-74
2022/01/29 02:04:33;;;;;;;7.85;2.40;;;;;;;-3.22;100.00;99401.53;4357567;32;20076;-73
2022/01/29 02:07:01;;;;;;;9.50;2.70;;;;;;;-2.80;100.00;99448.34;4362767;32;20057;-74
2022/01/29 02:09:30;;;;;;;11.25;2.70;;;;;;;-3.08;100.00;99387.84;4367518;32;20062;-74
2022/01/29 02:12:01;;;;;;;9.63;2.83;;;;;;;-2.75;100.00;99443.44;4369366;32;20040;-74
2022/01/29 02:14:31;;;;;;;19.17;2.92;;;;;;;-3.35;100.00;99360.63;4369737;32;20424;-73
2022/01/29 02:17:00;;;;;;;7.35;2.67;;;;;;;-2.81;100.00;99442.25;4369134;32;20083;-74
2022/01/29 02:19:27;;;;;;;5.35;1.92;;;;;;;-2.82;100.00;99439.75;4362534;32;20074;-75
2022/01/29 02:21:55;;;;;;;9.13;3.25;;;;;;;-2.83;100.00;99443.38;4352688;33;20069;-74
2022/01/29 02:24:22;;;;;;;5.37;2.35;;;;;;;-2.78;100.00;99447.19;4353895;33;20078;-74
2022/01/29 02:26:48;;;;;;;6.22;2.55;;;;;;;-3.07;100.00;99384.22;4354530;33;20361;-74
2022/01/29 02:29:15;;;;;;;12.98;3.15;;;;;;;-3.07;100.00;99384.22;4354097;32;20047;-75
2022/01/29 02:31:47;;;;;;;7.30;2.20;;;;;;;-2.79;100.00;99428.91;4364167;32;20069;-75
2022/01/29 02:34:14;;;;;;;12.43;2.37;;;;;;;-3.04;100.00;99376.03;4360381;32;20096;-74
2022/01/29 02:36:42;;;;;;;10.57;2.65;;;;;;;-2.76;100.00;99423.31;4370243;32;20048;-74
2022/01/29 02:39:14;;;;;;;8.10;2.50;;;;;;;-3.11;100.00;99367.91;4418012;32;20449;-74
2022/01/29 02:41:43;;;;;;;9.07;2.97;;;;;;;-3.57;100.00;99298.75;4431520;32;20026;-74
2022/01/29 02:44:15;;;;;;;10.10;3.22;;;;;;;-3.02;100.00;99381.94;4432996;32;20167;-74
2022/01/29 02:46:48;;;;;;;11.40;3.22;;;;;;;-3.40;100.00;99319.94;4415406;32;20026;-74
2022/01/29 02:49:23;;;;;;;5.40;1.98;;;;;;;-3.12;100.00;99376.78;4417617;32;20048;-74
2022/01/29 02:51:54;;;;;;;4.18;2.17;;;;;;;-3.70;100.00;99283.34;4416869;32;20085;-74
2022/01/29 02:54:23;;;;;;;4.80;2.92;;;;;;;-2.99;100.00;99392.19;4416478;32;20059;-74
2022/01/29 02:56:49;;;;;;;12.68;3.22;;;;;;;-3.19;100.00;99375.75;4417454;32;20069;-74
2022/01/29 02:59:22;;;;;;;7.78;2.65;;;;;;;-3.32;100.00;99365.59;4427718;32;20042;-76
2022/01/29 03:01:49;;;;;;;9.18;3.42;;;;;;;-3.33;100.00;99385.00;4429804;32;20086;-74
2022/01/29 03:04:15;;;;;;;12.15;3.00;;;;;;;-3.44;100.00;99361.53;4419153;32;20118;-73
2022/01/29 03:06:42;;;;;;;8.90;2.75;;;;;;;-3.43;100.00;99359.72;4432408;32;20034;-75
2022/01/29 03:09:09;;;;;;;11.27;3.40;;;;;;;-3.17;100.00;99394.03;4421604;32;20073;-75
2022/01/29 03:11:35;;;;;;;11.75;3.97;;;;;;;-3.40;100.00;99357.62;4413945;32;20364;-75
2022/01/29 03:14:02;;;;;;;11.68;3.08;;;;;;;-3.53;100.00;99341.38;4414640;32;20043;-74
2022/01/29 03:16:29;;;;;;;13.00;3.22;;;;;;;-3.47;100.00;99346.03;4431405;32;20132;-74
2022/01/29 03:18:55;;;;;;;7.22;2.70;;;;;;;-3.66;100.00;99316.25;4417787;32;20034;-74
2022/01/29 03:21:22;;;;;;;10.20;3.42;;;;;;;-3.23;100.00;99379.66;4417102;32;20034;-74
2022/01/29 03:23:48;;;;;;;23.55;6.05;;;;;;;-3.15;100.00;99408.69;4416508;32;20063;-74
2022/01/29 03:26:14;;;;;;;11.05;5.25;;;;;;;-3.14;100.00;99401.63;4423928;32;20056;-73
2022/01/29 03:28:41;;;;;;;13.98;4.32;;;;;;;-3.19;100.00;99388.91;4418187;32;20844;-74
2022/01/29 03:31:08;;;;;;;14.10;4.72;;;;;;;-3.52;100.00;99353.56;4417820;32;20030;-73
2022/01/29 03:33:34;;;;;;;16.52;4.15;;;;;;;-3.51;100.00;99344.69;4417069;32;20383;-74
2022/01/29 03:36:01;;;;;;;7.05;3.12;;;;;;;-3.08;100.00;99398.37;4416781;32;20057;-74
2022/01/29 03:38:28;;;;;;;15.00;4.47;;;;;;;-3.22;100.00;99375.19;4422166;32;20064;-73
2022/01/29 03:40:57;;;;;;;13.18;3.42;;;;;;;-3.24;100.00;99382.44;4418078;32;20075;-73
2022/01/29 03:43:28;;;;;;;8.52;3.15;;;;;;;-3.16;100.00;99390.41;4420944;32;20038;-73
2022/01/29 03:45:55;;;;;;;6.60;3.30;;;;;;;-3.23;100.00;99363.03;4446419;32;20432;-73
2022/01/29 03:48:21;;;;;;;11.45;3.58;;;;;;;-3.07;100.00;99381.59;4435891;32;20089;-73
2022/01/29 03:50:48;;;;;;;18.48;3.67;;;;;;;-3.28;100.00;99356.41;4430063;32;20712;-75
2022/01/29 03:53:15;;;;;;;15.80;3.17;;;;;;;-3.53;100.00;99312.44;4431456;32;20047;-75
2022/01/29 03:55:41;;;;;;;15.82;3.83;;;;;;;-3.08;100.00;99394.91;4417220;32;20165;-74
2022/01/29 03:58:07;;;;;;;8.93;3.60;;;;;;;-3.44;100.00;99343.13;4418402;32;20428;-74
2022/01/29 04:00:34;;;;;;;9.50;3.08;;;;;;;-3.43;100.00;99336.03;4445742;32;20331;-73
2022/01/29 04:03:01;;;;;;;11.18;4.12;;;;;;;-3.02;100.00;99387.22;4446339;32;20042;-73
2022/01/29 04:05:28;;;;;;;8.80;3.28;;;;;;;-3.13;100.00;99363.75;4446672;32;20067;-73
2022/01/29 04:07:55;;;;;;;7.22;2.85;;;;;;;-3.03;100.00;99369.78;4444362;32;20030;-74
2022/01/29 04:10:23;;;;;;;11.35;3.05;;;;;;;-3.10;100.00;99379.25;4443933;32;20070;-73
2022/01/29 04:12:52;;;;;;;11.88;3.47;;;;;;;-3.11;100.00;99382.91;4430019;32;20072;-73
2022/01/29 04:15:19;;;;;;;5.90;3.12;;;;;;;-3.40;100.00;99331.28;4430918;32;20073;-74
2022/01/29 04:17:46;;;;;;;13.05;3.60;;;;;;;-3.06;100.00;99399.06;4439380;32;20349;-74
2022/01/29 04:20:12;;;;;;;14.60;3.42;;;;;;;-3.38;100.00;99318.81;4446846;32;20377;-74
2022/01/29 04:22:38;;;;;;;11.00;4.10;;;;;;;-3.16;100.00;99362.28;4444134;32;20061;-74
2022/01/29 04:25:06;;;;;;;12.37;3.85;;;;;;;-3.30;100.00;99337.31;4433839;32;20053;-74
2022/01/29 04:27:42;;;;;;;11.50;4.30;;;;;;;-3.36;100.00;99322.13;4431383;32;20026;-73
2022/01/29 04:30:38;;;;;;;11.23;4.00;;;;;;;-3.00;100.00;99368.63;4417471;32;20095;-74
2022/01/29 04:33:15;;;;;;;9.45;3.78;;;;;;;-3.24;100.00;99332.41;4446162;32;20042;-74
2022/01/29 04:35:41;;;;;;;7.53;3.10;;;;;;;-3.08;100.00;99361.47;4445376;32;20067;-75
2022/01/29 04:38:08;;;;;;;14.80;4.43;;;;;;;-3.23;100.00;99336.69;4427955;32;20424;-75
2022/01/29 04:40:35;;;;;;;10.60;4.15;;;;;;;-3.43;100.00;99273.69;4415855;32;20803;-74
2022/01/29 04:43:03;;;;;;;21.62;5.47;;;;;;;-2.90;100.00;99360.63;4431507;32;20289;-73
2022/01/29 04:45:30;;;;;;;16.10;4.22;;;;;;;-2.94;100.00;99360.94;4436807;32;20033;-73
2022/01/29 04:47:57;;;;;;;10.15;4.30;;;;;;;-2.95;100.00;99351.38;4433078;32;20038;-74
2022/01/29 04:50:23;;;;;;;13.35;5.10;;;;;;;-2.95;100.00;99367.19;4426544;32;20400;-74
2022/01/29 04:52:50;;;;;;;17.40;4.70;;;;;;;-2.97;100.00;99374.44;4445270;32;20053;-73
2022/01/29 04:55:16;;;;;;;16.52;5.18;;;;;;;-3.36;100.00;99311.56;4446099;32;20429;-73
2022/01/29 04:57:43;;;;;;;16.42;5.43;;;;;;;-2.96;100.00;99359.44;4432941;32;20030;-74
2022/01/29 05:00:20;;;;;;;15.25;4.30;;;;;;;-3.31;100.00;99311.94;4431000;32;20390;-74
2022/01/29 05:02:56;;;;;;;29.15;8.05;;;;;;;-3.35;100.00;99312.41;4430135;32;20071;-74
2022/01/29 05:05:23;;;;;;;19.45;5.95;;;;;;;-2.94;100.00;99358.28;4445696;32;20048;-73
2022/01/29 05:07:49;;;;;;;11.75;4.87;;;;;;;-3.05;100.00;99361.19;4437011;32;20404;-75
2022/01/29 05:10:16;;;;;;;9.77;4.25;;;;;;;-3.04;100.00;99362.84;4429216;32;20030;-74
2022/01/29 05:12:56;;;;;;;8.82;4.28;;;;;;;-2.98;100.00;99354.31;4429812;32;20026;-74
2022/01/29 05:28:51;;;;;;;15.77;4.32;;;;;;;-2.95;100.00;99314.50;4429046;32;20038;-75
2022/01/29 05:31:18;;;;;;;27.02;5.22;;;;;;;-3.23;100.00;99278.75;4432112;32;20042;-74
2022/01/29 05:33:44;;;;;;;10.50;4.12;;;;;;;-2.87;100.00;99352.41;4432886;32;20298;-73
2022/01/29 05:36:11;;;;;;;16.65;4.18;;;;;;;-2.92;100.00;99340.53;4421356;32;20106;-74
2022/01/29 05:38:38;;;;;;;11.45;4.72;;;;;;;-2.86;100.00;99338.25;4418569;32;20355;-73
2022/01/29 05:41:05;;;;;;;7.85;3.60;;;;;;;-2.97;100.00;99321.75;4430806;32;20391;-74
2022/01/29 05:43:32;;;;;;;22.33;4.53;;;;;;;-3.18;100.00;99281.75;4431442;32;20093;-73
2022/01/29 05:45:59;;;;;;;15.70;4.65;;;;;;;-2.79;100.00;99318.22;4433042;32;20405;-73
2022/01/29 05:48:25;;;;;;;10.77;4.55;;;;;;;-3.41;100.00;99211.16;4431501;32;20034;-74
2022/01/29 05:50:52;;;;;;;20.05;5.57;;;;;;;-2.83;100.00;99307.13;4423336;32;20038;-73
2022/01/29 05:53:18;;;;;;;10.10;4.20;;;;;;;-3.16;100.00;99253.44;4416901;32;20052;-75
2022/01/29 05:55:45;;;;;;;16.65;4.55;;;;;;;-2.82;100.00;99297.44;4418542;32;20047;-73
2022/01/29 05:58:12;;;;;;;14.87;4.55;;;;;;;-2.97;100.00;99269.03;4431358;32;20183;-74
2022/01/29 06:00:40;;;;;;;18.80;4.18;;;;;;;-2.81;100.00;99293.81;4438619;32;20421;-75
2022/01/29 06:03:12;;;;;;;6.78;2.22;;;;;;;-2.74;100.00;99281.66;4430302;32;20150;-75
2022/01/29 06:05:41;;;;;;;9.98;4.43;;;;;;;-2.73;100.00;99267.47;4418817;32;20033;-75
2022/01/29 06:08:16;;;;;;;21.12;4.62;;;;;;;-2.70;100.00;99269.00;4433770;32;20047;-74
2022/01/29 06:10:52;;;;;;;14.75;4.45;;;;;;;-2.72;100.00;99282.31;4447182;32;20046;-76
2022/01/29 06:13:18;;;;;;;18.45;4.68;;;;;;;-2.71;100.00;99272.59;4430841;32;20077;-75
2022/01/29 06:15:49;;;;;;;15.57;4.75;;;;;;;-2.81;100.00;99259.53;4432127;32;20047;-75
2022/01/29 06:18:18;;;;;;;27.87;7.28;;;;;;;-2.62;100.00;99272.47;4433368;32;20088;-74
2022/01/29 06:20:49;;;;;;;19.73;5.00;;;;;;;-2.73;100.00;99251.66;4432731;32;20031;-75
2022/01/29 06:23:20;;;;;;;21.40;6.97;;;;;;;-2.63;100.00;99275.28;4424257;32;20118;-75
2022/01/29 06:25:47;;;;;;;10.10;4.37;;;;;;;-2.66;100.00;99244.78;4426566;32;20071;-74
2022/01/29 06:28:13;;;;;;;17.62;5.60;;;;;;;-2.93;100.00;99222.13;4434513;32;20038;-75
2022/01/29 06:30:40;;;;;;;21.90;4.10;;;;;;;-2.81;100.00;99235.81;4431096;32;20060;-75
2022/01/29 06:33:12;;;;;;;29.27;9.05;;;;;;;-2.52;100.00;99271.53;4430108;32;20067;-75
2022/01/29 06:35:41;;;;;;;7.28;4.07;;;;;;;-2.89;100.00;99218.16;4422782;32;20403;-75
2022/01/29 06:38:10;;;;;;;25.90;9.10;;;;;;;-2.88;100.00;99225.09;4431119;32;20069;-75
2022/01/29 06:40:37;;;;;;;28.65;12.35;;;;;;;-2.89;100.00;99217.34;4430781;32;20038;-75
2022/01/29 06:43:04;;;;;;;24.35;10.07;;;;;;;-2.60;100.00;99259.97;4431053;32;20062;-77
2022/01/29 06:45:32;;;;;;;20.73;5.62;;;;;;;-2.85;100.00;99208.16;4431327;32;20042;-76
2022/01/29 06:48:00;;;;;;;24.73;5.25;;;;;;;-3.07;100.00;99157.66;4446867;32;20053;-76
2022/01/29 06:50:27;;;;;;;19.33;4.45;;;;;;;-2.87;100.00;99194.28;4437307;32;20403;-76
2022/01/29 06:52:54;;;;;;;15.40;4.95;;;;;;;-2.87;100.00;99205.69;4431140;32;20080;-76
2022/01/29 06:55:21;;;;;;;19.80;5.28;;;;;;;-2.86;100.00;99186.22;4430876;32;20038;-77
2022/01/29 06:57:48;;;;;;;18.08;4.60;;;;;;;-3.03;100.00;99169.56;4419938;32;20290;-75
2022/01/29 07:00:16;;;;;;;15.18;4.80;;;;;;;-2.70;100.00;99216.28;4432034;32;20371;-74
2022/01/29 07:02:42;;;;;;;27.65;4.85;;;;;;;-2.61;100.00;99231.13;4429823;32;20104;-75
2022/01/29 07:05:10;;;;;;;24.83;5.60;;;;;;;-2.71;100.00;99207.53;4430908;32;20408;-73
2022/01/29 07:07:37;;;;;;;12.80;5.15;;;;;;;-2.54;100.00;99236.59;4427879;32;20046;-74
2022/01/29 07:10:05;;;;;;;10.13;3.87;;;;;;;-2.59;100.00;99240.50;4416484;32;20555;-74
2022/01/29 07:12:31;;;;;;;18.85;5.87;;;;;;;-2.96;100.00;99173.19;4430975;32;20442;-74
2022/01/29 07:14:58;;;;;;;17.83;3.95;;;;;;;-2.95;100.00;99171.41;4436109;32;20067;-73
2022/01/29 07:17:24;;;;;;;19.77;5.30;;;;;;;-2.65;100.00;99228.00;4430595;32;20096;-75
2022/01/29 07:19:52;;;;;;;21.73;5.28;;;;;;;-2.67;100.00;99211.50;4441325;32;20495;-74
2022/01/29 07:22:19;;;;;;;18.58;6.57;;;;;;;-2.91;100.00;99172.72;4429684;32;20054;-74
2022/01/29 07:24:49;;;;;;;11.40;6.22;;;;;;;-3.04;100.00;99146.81;4429137;32;20058;-74
2022/01/29 07:27:16;;;;;;;22.00;7.75;;;;;;;-2.58;100.00;99209.72;4427817;32;20076;-75
2022/01/29 07:29:43;;;;;;;21.90;7.90;;;;;;;-3.01;100.00;99129.88;4429237;32;20041;-73
2022/01/29 07:32:10;;;;;;;24.02;6.87;;;;;;;-2.43;100.00;99192.28;4432261;32;20416;-73
2022/01/29 07:34:37;;;;;;;17.62;6.37;;;;;;;-2.81;100.00;99135.69;4432299;32;20386;-74
2022/01/29 07:37:04;;;;;;;28.48;5.47;;;;;;;-2.35;100.00;99186.19;4442315;32;20067;-74
2022/01/29 07:39:31;;;;;;;17.55;4.18;;;;;;;-2.31;100.00;99187.53;4431625;32;20382;-74
2022/01/29 07:41:58;;;;;;;16.83;5.25;;;;;;;-2.22;100.00;99189.19;4447738;32;20075;-73
2022/01/29 07:44:25;;;;;;;10.45;3.28;;;;;;;-2.20;100.00;99166.09;4432772;32;20045;-72
2022/01/29 07:46:52;;;;;;;14.07;4.03;;;;;;;-2.16;100.00;99157.88;4436709;32;20068;-74
2022/01/29 07:49:18;;;;;;;28.95;6.32;;;;;;;-2.05;100.00;99163.63;4445480;32;20435;-74
2022/01/29 07:51:45;;;;;;;21.80;5.95;;;;;;;-2.01;100.00;99169.41;4442756;32;20026;-75
2022/01/29 07:54:11;;;;;;;24.55;6.37;;;;;;;-2.24;100.00;99121.75;4446468;32;20045;-74
2022/01/29 07:56:38;;;;;;;19.58;6.25;;;;;;;-1.89;100.00;99168.09;4446395;32;20030;-74
2022/01/29 07:59:05;;;;;;;18.20;4.80;;;;;;;-2.06;100.00;99113.66;4446282;32;20075;-73
2022/01/29 08:01:31;;;;;;;18.77;6.03;;;;;;;-2.06;100.00;99109.22;4436281;32;20443;-75
2022/01/29 08:03:59;;;;;;;9.95;3.95;;;;;;;-1.89;100.00;99115.28;4430301;32;20063;-73
2022/01/29 08:06:29;;;;;;;15.60;5.65;;;;;;;-1.94;100.00;99093.06;4430903;32;20491;-74
2022/01/29 08:08:56;;;;;;;19.85;5.90;;;;;;;-1.55;100.00;99145.91;4443689;32;20045;-74
2022/01/29 08:11:24;;;;;;;15.77;5.18;;;;;;;-1.70;100.00;99139.69;4445669;32;20391;-74
2022/01/29 08:13:51;;;;;;;24.42;5.35;;;;;;;-1.96;100.00;99085.31;4433511;32;20093;-74
2022/01/29 08:16:17;;;;;;;30.52;5.25;;;;;;;-1.89;100.00;99080.97;4433138;32;20071;-74
2022/01/29 08:18:45;;;;;;;13.50;4.20;;;;;;;-1.51;100.00;99125.28;4428780;32;20026;-72
2022/01/29 08:21:18;;;;;;;20.35;5.80;;;;;;;-1.78;100.00;99079.00;4431585;32;20432;-74
2022/01/29 08:23:45;;;;;;;21.92;4.30;;;;;;;-1.40;100.00;99124.13;4430245;32;20051;-73
2022/01/29 08:26:12;;;;;;;20.17;5.12;;;;;;;-1.49;100.00;99105.62;4429581;32;20038;-73
2022/01/29 08:28:39;;;;;;;14.38;4.37;;;;;;;-1.76;100.00;99048.78;4441341;32;20053;-73
2022/01/29 08:31:06;;;;;;;17.55;5.03;;;;;;;-1.44;100.00;99099.03;4429708;32;20072;-74
2022/01/29 08:33:33;;;;;;;17.23;4.65;;;;;;;-1.67;100.00;99045.12;4430761;32;20072;-73
2022/01/29 08:36:00;;;;;;;11.50;4.32;;;;;;;-1.29;100.00;99099.97;4416545;32;20080;-75
2022/01/29 08:38:27;;;;;;;15.77;4.57;;;;;;;-1.12;100.00;99101.53;4441652;32;20102;-73
2022/01/29 08:40:54;;;;;;;13.88;5.53;;;;;;;-1.17;100.00;99085.38;4445860;32;20054;-73
2022/01/29 08:43:22;;;;;;;24.15;7.00;;;;;;;-1.08;100.00;99101.22;4445172;32;20082;-73
2022/01/29 08:45:50;;;;;;;25.10;5.97;;;;;;;-1.02;100.00;99090.75;4446491;32;20331;-73
2022/01/29 08:48:18;;;;;;;17.60;6.37;;;;;;;-1.05;100.00;99100.84;4427617;32;20148;-74
2022/01/29 08:50:45;;;;;;;22.85;6.10;;;;;;;-1.02;100.00;99084.63;4429394;32;20072;-74
2022/01/29 08:53:14;;;;;;;26.92;5.85;;;;;;;-0.97;100.00;99082.31;4429911;32;20444;-73
2022/01/29 08:55:40;;;;;;;25.42;6.35;;;;;;;-0.91;100.00;99081.59;4440153;32;20083;-73
2022/01/29 08:58:08;;;;;;;20.02;5.47;;;;;;;-1.32;100.00;99028.97;4438241;32;20046;-73
2022/01/29 09:00:40;;;;;;;25.08;7.70;;;;;;;-1.02;100.00;99082.00;4443922;32;20067;-74
2022/01/29 09:03:07;;;;;;;44.72;8.50;;;;;;;-0.85;100.00;99080.09;4431291;32;20045;-75
2022/01/29 09:05:34;;;;;;;28.23;6.93;;;;;;;-1.22;100.00;99026.94;4430583;32;20393;-75
2022/01/29 09:08:03;;;;;;;21.67;6.65;;;;;;;-0.79;100.00;99074.91;4430427;32;20119;-74
2022/01/29 09:10:31;;;;;;;30.35;8.18;;;;;;;-0.71;100.00;99065.28;4429351;32;20042;-75
2022/01/29 09:12:59;;;;;;;26.00;6.18;;;;;;;-0.92;100.00;99001.47;4430944;32;20038;-74
2022/01/29 09:15:26;;;;;;;22.40;5.87;;;;;;;-0.69;100.00;99058.00;4441941;32;20033;-73
2022/01/29 09:17:52;;;;;;;22.08;6.25;;;;;;;-0.76;100.00;99053.41;4441699;32;20386;-74
2022/01/29 09:20:19;;;;;;;22.52;7.12;;;;;;;-0.74;100.00;99056.69;4424610;32;20182;-74
2022/01/29 09:22:45;;;;;;;18.48;6.87;;;;;;;-1.00;100.00;98992.78;4428056;32;20038;-75
2022/01/29 09:25:12;;;;;;;25.83;6.47;;;;;;;-0.96;100.00;98988.78;4444597;32;20068;-74
2022/01/29 09:27:39;;;;;;;21.90;5.12;;;;;;;-0.79;100.00;98985.03;4429073;32;20058;-74
2022/01/29 09:30:07;;;;;;;25.50;5.68;;;;;;;-0.78;100.00;98970.00;4429319;32;20211;-73
2022/01/29 09:32:34;;;;;;;25.05;5.00;;;;;;;-0.83;100.00;98962.59;4430038;32;20042;-75
2022/01/29 09:35:01;;;;;;;19.95;5.57;;;;;;;-0.43;100.00;99016.16;4415516;32;20046;-73
2022/01/29 09:37:27;;;;;;;33.22;8.27;;;;;;;-0.56;100.00;98981.53;4420108;32;20203;-74
2022/01/29 09:39:54;;;;;;;24.30;4.95;;;;;;;-0.18;100.00;99002.66;4413587;32;20027;-70
2022/01/29 09:42:20;;;;;;;30.12;6.40;;;;;;;-0.23;100.00;99011.16;4363473;32;20146;-71
2022/01/29 09:44:48;;;;;;;32.13;6.35;;;;;;;-0.55;100.00;98964.66;4357009;32;20043;-79
2022/01/29 09:47:18;;;;;;;22.02;6.70;;;;;;;-0.14;100.00;99009.25;4410096;32;20036;-71
2022/01/29 09:49:45;;;;;;;20.77;6.18;;;;;;;-0.67;100.00;98923.78;4353130;33;20061;-70
2022/01/29 09:52:11;;;;;;;24.08;7.35;;;;;;;-0.06;100.00;99014.47;4416209;32;20080;-71
2022/01/29 09:54:39;;;;;;;19.92;5.47;;;;;;;-0.24;100.00;99004.22;4356490;32;20390;-74
2022/01/29 09:57:05;;;;;;;24.27;6.12;;;;;;;-0.44;100.00;98961.56;4353183;32;20066;-71
2022/01/29 09:59:32;;;;;;;19.55;5.70;;;;;;;-0.32;100.00;98969.06;4368871;32;20074;-71
2022/01/29 10:01:58;;;;;;;35.85;7.72;;;;;;;-0.33;100.00;98946.28;4355729;32;20063;-71
2022/01/29 10:04:27;;;;;;;19.35;5.43;;;;;;;-0.05;100.00;98992.28;4368170;32;20047;-70
2022/01/29 10:07:27;;;;;;;17.80;5.25;;;;;;;-0.20;100.00;98984.31;4415209;32;20066;-70
2022/01/29 10:09:56;;;;;;;22.65;4.95;;;;;;;-0.04;100.00;99004.50;4356940;32;20070;-70
2022/01/29 10:12:31;;;;;;;16.15;4.93;;;;;;;-0.03;100.00;98974.41;4356160;32;20062;-71
2022/01/29 10:15:07;;;;;;;25.90;6.10;;;;;;;0.04;100.00;98984.25;4361753;32;20496;-71
2022/01/29 10:17:41;;;;;;;16.15;5.72;;;;;;;-0.03;100.00;98974.41;4404980;32;20035;-69
2022/01/29 10:20:11;;;;;;;30.60;5.70;;;;;;;-0.53;100.00;98870.06;4360420;32;20048;-71
2022/01/29 10:22:38;;;;;;;31.92;6.35;;;;;;;0.16;100.00;98956.28;4356598;32;20060;-71
2022/01/29 10:25:09;;;;;;;18.85;6.35;;;;;;;0.12;100.00;98947.09;4366426;32;20381;-71
2022/01/29 10:27:36;;;;;;;28.02;7.32;;;;;;;0.13;100.00;98948.75;4361999;32;20047;-71
2022/01/29 10:30:03;;;;;;;24.23;7.03;;;;;;;-0.41;100.00;98850.09;4416507;32;20048;-71
2022/01/29 10:32:30;;;;;;;24.98;5.78;;;;;;;-0.49;100.00;98822.94;4355608;32;20388;-71
2022/01/29 10:34:58;;;;;;;17.05;5.80;;;;;;;0.10;100.00;98914.69;4362779;32;20074;-71
2022/01/29 10:37:26;;;;;;;18.33;5.12;;;;;;;0.13;100.00;98919.63;4357636;32;20043;-70
2022/01/29 10:39:58;;;;;;;21.00;5.78;;;;;;;0.22;100.00;98915.84;4361998;32;20073;-71
2022/01/29 10:42:35;;;;;;;23.67;6.15;;;;;;;0.16;100.00;98903.34;4354472;32;20039;-70
2022/01/29 10:45:05;;;;;;;20.25;5.80;;;;;;;0.18;100.00;98896.03;4353332;32;20101;-70
2022/01/29 10:47:56;;;;;;;34.92;5.97;;;;;;;0.32;100.00;98897.84;4357014;32;20095;-70
2022/01/29 10:50:24;;;;;;;21.98;7.57;;;;;;;0.35;100.00;98876.28;4417225;32;20089;-70
2022/01/29 10:52:51;;;;;;;20.90;5.60;;;;;;;-0.14;100.00;98817.84;4419338;32;20098;-70
2022/01/29 10:55:17;;;;;;;26.40;6.80;;;;;;;0.15;100.00;98868.09;4398327;32;20337;-71
2022/01/29 10:57:46;;;;;;;18.92;6.57;;;;;;;0.12;100.00;98855.22;4354833;32;20039;-73
2022/01/29 11:00:25;;;;;;;21.67;5.75;;;;;;;0.28;100.00;98853.38;4361159;32;20056;-71
2022/01/29 11:02:54;;;;;;;23.52;6.45;;;;;;;-0.05;100.00;98809.66;4420591;32;20400;-71
2022/01/29 11:05:28;;;;;;;23.58;6.70;;;;;;;0.21;100.00;98841.87;4369411;32;20087;-70
2022/01/29 11:07:56;;;;;;;19.83;5.05;;;;;;;0.23;100.00;98827.44;4362675;32;20065;-71
2022/01/29 11:10:26;;;;;;;27.25;5.82;;;;;;;0.15;100.00;98823.09;4414001;32;20059;-71
2022/01/29 11:12:53;;;;;;;30.37;7.68;;;;;;;-0.05;100.00;98775.25;4410851;32;20047;-70
2022/01/29 11:15:22;;;;;;;16.17;6.37;;;;;;;0.35;100.00;98812.72;4364048;32;20458;-73
2022/01/29 11:17:50;;;;;;;23.75;7.53;;;;;;;0.14;100.00;98815.34;4412974;32;20055;-70
2022/01/29 11:20:17;;;;;;;30.23;6.50;;;;;;;0.38;100.00;98810.69;4361605;32;20036;-70
2022/01/29 11:22:47;;;;;;;32.00;7.78;;;;;;;0.28;100.00;98805.72;4359545;32;20061;-70
2022/01/29 11:25:21;;;;;;;27.48;9.57;;;;;;;0.40;100.00;98798.06;4409906;32;20451;-75
2022/01/29 11:28:08;;;;;;;25.00;6.45;;;;;;;0.40;100.00;98779.53;4360710;32;20077;-70
2022/01/29 11:30:35;;;;;;;26.08;7.68;;;;;;;0.27;100.00;98773.13;4402410;32;20023;-71
2022/01/29 11:33:01;;;;;;;25.98;7.32;;;;;;;0.28;100.00;98769.44;4412374;32;20145;-73
2022/01/29 11:35:31;;;;;;;24.98;6.30;;;;;;;0.32;100.00;98762.75;4362320;32;20439;-70
2022/01/29 11:38:04;;;;;;;17.45;6.90;;;;;;;-0.14;100.00;98723.41;4384391;32;20042;-71